Crossville, TN

10:11 PM CDT on August 30, 2014 (GMT -0500)
Crossville City Hall | Change Station
CLOSE
Current Station
Personal Weather Station
Location: Crossville, TN
Elevation: 1867 ft
Nearby Weather Stations

Elev 1867 ft 35.95 °N, 85.03 °W | Updated 12 minutes ago

Rain
Rain
69.0 °F
Feels Like 69.0 °F
N
2.0
Wind Variable Wind from WSW
Gusts 12.0 mph

Today
High -- | Low -- °F
--% Chance of Precip.
Yesterday
High -- | Low -- °F
Precip. -- in
6:10 AM 7:10 PM
Waxing Crescent, 27% visible
Pressure 30.19 in
Visibility 5.0 miles
Clouds Scattered Clouds 900 ft
Mostly Cloudy 3500 ft
Overcast 10000 ft
Dew Point 68 °F
Humidity 95%
Rainfall 0.95 in
Snow Depth Not available.
UV 0 out of 12
Pollen 9.90 out of 12
Ozone Good
PM2.5 Moderate
Flu Activity Not available.
SPECI KCSV 310303Z AUTO 27008KT 5SM RA SCT009 BKN035 OVC100 22/19 A3019 RMK AO2 LTG DSNT NE AND E P0003 T02220194

More Conditions Fewer Conditions

Pressure 30.19 in
Visibility 5.0 miles
Clouds Scattered Clouds 900 ft
Mostly Cloudy 3500 ft
Overcast 10000 ft
Dew Point 68 °F
Humidity 95%
Rainfall 0.95 in
Snow Depth Not available.
UV 0 out of 12
Pollen 9.90 out of 12
Ozone Good
PM2.5 Moderate
Flu Activity Not available.
SPECI KCSV 310303Z AUTO 27008KT 5SM RA SCT009 BKN035 OVC100 22/19 A3019 RMK AO2 LTG DSNT NE AND E P0003 T02220194

More Conditions Fewer Conditions

10-Day Weather Forecast

Almanac

Astronomy

Aug. 30, 2014 Rise Set
Actual Time 6:10 AM CDT 7:10 PM CDT
Civil Twilight 5:44 AM CDT 7:36 PM CDT
Nautical Twilight 5:12 AM CDT 8:07 PM CDT
Astronomical Twilight 4:40 AM CDT 8:39 PM CDT
Moon 10:47 AM CDT (8/30) 9:54 PM CDT (8/30)
Length of Visible Light 13h 52m
Length of Day
13h 00m
Tomorrow will be 2m 11s shorter.
Waxing Crescent, 27% of the Moon is Illuminated
Today
Waxing Crescent
Sep 2
First Quarter
Sep 8
Full
Sep 15
Last Quarter
Sep 24
New

Today's Extremes

State Highs State Lows

Community

WunderPhotos

Upload Photos

1,748,767 photos uploaded!

Nearby

Air Quality

  Air Quality AQ Index Pollutant
Yesterday Moderate
PM2.5
Yesterday Moderate
OZONE
Current Moderate
PM2.5
Current Good
OZONE
Saturday Moderate
PM2.5
Saturday Moderate
OZONE
Sunday Moderate
PM2.5
Sunday Good
OZONE
Monday Moderate
PM2.5
Monday Good
OZONE

Snow Depth

Station Depth Elevation
No new snow has been reported.

Earthquake Activity

City Distance Mag. Time & Date
No recent earthquake activity has been reported nearby.
Minimum magnitude displayed is 2.5.

Coastal Water Temperatures

Place Temperature
No Stations Reporting

Nearby Weather Stations